createdAt,value
2023-06-06T00:01:24.361Z,100495.22
2023-06-06T00:04:28.869Z,100492.47
2023-06-06T00:07:34.059Z,100491.50
2023-06-06T00:10:40.405Z,100494.09
2023-06-06T00:13:45.533Z,100490.06
2023-06-06T00:16:50.101Z,100505.38
2023-06-06T00:19:56.053Z,100501.19
2023-06-06T00:22:59.405Z,100500.31
2023-06-06T00:26:02.318Z,100502.34
2023-06-06T00:29:05.400Z,100499.00
2023-06-06T00:32:08.435Z,100504.84
2023-06-06T00:35:11.587Z,100489.09
2023-06-06T00:38:14.581Z,100496.88
2023-06-06T00:41:17.877Z,100498.75
2023-06-06T00:44:22.312Z,100492.19
2023-06-06T00:47:28.428Z,100485.72
2023-06-06T00:50:32.185Z,100474.41
2023-06-06T00:53:38.645Z,100479.00
2023-06-06T00:56:45.193Z,100476.72
2023-06-06T00:59:48.494Z,100470.22
2023-06-06T01:02:51.450Z,100467.00
2023-06-06T01:05:55.003Z,100474.53
2023-06-06T01:09:06.496Z,100476.97
2023-06-06T01:12:37.119Z,100473.47
2023-06-06T01:15:49.349Z,100473.66
2023-06-06T01:18:53.790Z,100475.75
2023-06-06T01:21:58.680Z,100481.13
2023-06-06T01:25:05.166Z,100483.59
2023-06-06T01:28:14.815Z,100475.31
2023-06-06T01:31:23.514Z,100474.97
2023-06-06T01:34:40.407Z,100479.94
2023-06-06T01:37:53.912Z,100476.13
2023-06-06T01:40:59.677Z,100481.81
2023-06-06T01:44:04.235Z,100475.88
2023-06-06T01:47:09.029Z,100480.38
2023-06-06T01:50:14.058Z,100484.28
2023-06-06T01:53:17.142Z,100483.31
2023-06-06T01:56:20.441Z,100479.63
2023-06-06T01:59:24.246Z,100479.38
2023-06-06T02:02:28.633Z,100482.00
2023-06-06T02:05:31.845Z,100482.44
2023-06-06T02:08:35.237Z,100478.16
2023-06-06T02:11:42.747Z,100483.88
2023-06-06T02:14:46.275Z,100482.06
2023-06-06T02:17:50.660Z,100488.38
2023-06-06T02:20:53.938Z,100477.28
2023-06-06T02:23:59.713Z,100486.34
2023-06-06T02:27:08.202Z,100483.59
2023-06-06T02:30:12.221Z,100481.91
2023-06-06T02:33:15.529Z,100477.06
2023-06-06T02:36:19.922Z,100475.88
2023-06-06T02:39:25.727Z,100480.28
2023-06-06T02:42:29.687Z,100476.94
2023-06-06T02:45:39.564Z,100447.38
2023-06-06T02:48:46.970Z,100469.81
2023-06-06T02:51:51.925Z,100462.81
2023-06-06T02:54:56.561Z,100457.66
2023-06-06T02:58:00.258Z,100454.88
2023-06-06T03:01:06.464Z,100439.75
2023-06-06T03:04:13.333Z,100436.88
2023-06-06T03:07:18.392Z,100446.22
2023-06-06T03:10:24.917Z,100455.34
2023-06-06T03:13:28.528Z,100452.13
2023-06-06T03:16:32.064Z,100450.78
2023-06-06T03:19:36.006Z,100454.47
2023-06-06T03:22:41.290Z,100453.84
2023-06-06T03:25:45.598Z,100454.16
2023-06-06T03:28:50.795Z,100453.78
2023-06-06T03:31:54.510Z,100457.69
2023-06-06T03:34:57.785Z,100452.56
2023-06-06T03:38:02.642Z,100453.66
2023-06-06T03:41:05.833Z,100458.78
2023-06-06T03:44:10.490Z,100470.94
2023-06-06T03:47:14.006Z,100465.88
2023-06-06T03:50:17.811Z,100474.34
2023-06-06T03:53:21.248Z,100484.44
2023-06-06T03:56:25.156Z,100485.81
2023-06-06T03:59:27.919Z,100479.47
2023-06-06T04:02:31.408Z,100493.31
2023-06-06T04:05:34.408Z,100493.50
2023-06-06T04:08:37.479Z,100494.22
2023-06-06T04:11:40.556Z,100505.97
2023-06-06T04:14:44.142Z,100502.28
2023-06-06T04:17:46.932Z,100506.47
2023-06-06T04:20:49.773Z,100508.22
2023-06-06T04:23:57.271Z,100513.53
2023-06-06T04:27:04.719Z,100516.91
2023-06-06T04:30:10.379Z,100518.22
2023-06-06T04:33:13.570Z,100508.66
2023-06-06T04:36:16.507Z,100501.97
2023-06-06T04:39:24.199Z,100507.69
2023-06-06T04:42:37.294Z,100509.41
2023-06-06T04:45:40.878Z,100511.03
2023-06-06T04:48:46.684Z,100508.34
2023-06-06T04:51:49.548Z,100515.88
2023-06-06T04:54:53.361Z,100520.31
2023-06-06T04:57:57.045Z,100531.66
2023-06-06T05:01:00.176Z,100521.59
2023-06-06T05:04:04.554Z,100535.97
2023-06-06T05:07:10.344Z,100540.09
2023-06-06T05:10:13.978Z,100541.91
2023-06-06T05:13:22.481Z,100551.38
2023-06-06T05:16:28.977Z,100550.34
2023-06-06T05:19:32.728Z,100546.47
2023-06-06T05:22:36.514Z,100544.94
2023-06-06T05:25:43.580Z,100554.00
2023-06-06T05:28:47.419Z,100555.78
2023-06-06T05:31:51.049Z,100554.03
2023-06-06T05:34:55.053Z,100553.97
2023-06-06T05:37:58.742Z,100557.56
2023-06-06T05:41:04.274Z,100556.84
2023-06-06T05:44:16.481Z,100548.78
2023-06-06T05:47:49.883Z,100550.41
2023-06-06T05:51:17.733Z,100550.53
2023-06-06T05:54:41.507Z,100548.09
2023-06-06T05:57:57.815Z,100549.41
2023-06-06T06:01:02.581Z,100557.91
2023-06-06T06:04:10.508Z,100564.25
2023-06-06T06:07:15.508Z,100560.41
2023-06-06T06:10:22.466Z,100560.31
2023-06-06T06:13:26.547Z,100562.75
2023-06-06T06:16:31.633Z,100562.13
2023-06-06T06:19:41.108Z,100572.63
2023-06-06T06:22:45.718Z,100567.13
2023-06-06T06:25:49.205Z,100581.13
2023-06-06T06:28:56.457Z,100589.47
2023-06-06T06:32:00.167Z,100593.56
2023-06-06T06:35:09.683Z,100596.03
2023-06-06T06:38:13.574Z,100603.69
2023-06-06T06:41:19.001Z,100602.66
2023-06-06T06:44:23.917Z,100602.94
2023-06-06T06:47:31.113Z,100609.91
2023-06-06T06:50:50.558Z,100595.38
2023-06-06T06:53:59.454Z,100622.72
2023-06-06T06:57:21.963Z,100623.22
2023-06-06T07:00:31.931Z,100622.38
2023-06-06T07:03:38.242Z,100632.59
2023-06-06T07:06:48.197Z,100628.31
2023-06-06T07:09:58.242Z,100621.56
2023-06-06T07:13:01.636Z,100624.16
2023-06-06T07:16:10.752Z,100623.47
2023-06-06T07:19:19.002Z,100624.53
2023-06-06T07:22:23.842Z,100609.50
2023-06-06T07:25:33.346Z,100614.41
2023-06-06T07:29:03.239Z,100623.69
2023-06-06T07:32:14.285Z,100630.44
2023-06-06T07:35:21.451Z,100630.75
2023-06-06T07:38:26.683Z,100629.88
2023-06-06T07:41:32.722Z,100636.63
2023-06-06T07:44:35.932Z,100634.41
2023-06-06T07:47:42.227Z,100641.78
2023-06-06T07:50:46.766Z,100645.00
2023-06-06T07:53:53.927Z,100642.38
2023-06-06T07:56:58.349Z,100644.56
2023-06-06T08:00:02.038Z,100640.94
2023-06-06T08:04:48.028Z,100643.91
2023-06-06T08:08:30.826Z,100644.78
2023-06-06T08:16:33.126Z,100635.31
2023-06-06T08:19:40.506Z,100639.38
2023-06-06T08:22:54.248Z,100635.47
2023-06-06T08:26:00.136Z,100633.63
2023-06-06T08:29:30.135Z,100622.91
2023-06-06T08:32:41.389Z,100634.25
2023-06-06T08:35:44.869Z,100640.44
2023-06-06T08:38:51.351Z,100642.53
2023-06-06T08:41:57.771Z,100635.09
2023-06-06T08:45:28.115Z,100639.06
2023-06-06T08:50:02.459Z,100642.19
2023-06-06T08:58:10.673Z,100634.81
2023-06-06T09:01:23.703Z,100635.50
2023-06-06T09:04:28.280Z,100631.19
2023-06-06T09:08:00.154Z,100643.81
2023-06-06T09:14:56.505Z,100640.00
2023-06-06T09:18:11.877Z,100646.28
2023-06-06T09:21:20.057Z,100641.44
2023-06-06T09:24:24.256Z,100632.44
2023-06-06T09:27:31.743Z,100650.53
2023-06-06T09:30:37.712Z,100648.13
2023-06-06T09:33:49.557Z,100647.09
2023-06-06T09:36:58.530Z,100642.06
2023-06-06T09:40:19.650Z,100644.91
2023-06-06T09:43:28.847Z,100645.16
2023-06-06T09:46:37.890Z,100644.22
2023-06-06T09:49:45.549Z,100642.03
2023-06-06T09:52:53.808Z,100637.72
2023-06-06T09:56:47.276Z,100638.97
2023-06-06T09:59:55.565Z,100642.03
2023-06-06T10:03:18.628Z,100642.03
2023-06-06T10:10:08.898Z,100640.69
2023-06-06T10:13:24.204Z,100631.28
2023-06-06T10:16:40.715Z,100625.72
2023-06-06T10:19:51.860Z,100610.81
2023-06-06T10:23:00.799Z,100629.88
2023-06-06T10:26:24.732Z,100622.13
2023-06-06T10:29:51.967Z,100630.81
2023-06-06T10:33:43.109Z,100620.63
2023-06-06T10:37:03.091Z,100629.22
2023-06-06T10:40:11.328Z,100628.09
2023-06-06T10:48:47.869Z,100612.28
2023-06-06T10:52:08.932Z,100621.72
2023-06-06T10:55:50.871Z,100614.50
2023-06-06T10:58:55.591Z,100624.13
2023-06-06T11:02:12.465Z,100624.78
2023-06-06T11:05:23.057Z,100622.16
2023-06-06T11:08:52.933Z,100623.63
2023-06-06T11:12:19.310Z,100623.53
2023-06-06T11:15:33.166Z,100628.94
2023-06-06T11:18:40.963Z,100623.66
2023-06-06T11:22:10.828Z,100620.13
2023-06-06T11:25:22.222Z,100626.50
2023-06-06T11:28:28.444Z,100631.31
2023-06-06T11:31:37.049Z,100626.00
2023-06-06T11:34:43.073Z,100625.22
2023-06-06T11:37:47.820Z,100622.38
2023-06-06T11:41:00.163Z,100613.59
2023-06-06T11:44:14.865Z,100614.88
2023-06-06T11:47:19.333Z,100612.13
2023-06-06T11:50:35.616Z,100603.41
2023-06-06T11:53:39.712Z,100607.34
2023-06-06T11:56:47.380Z,100613.03
2023-06-06T12:00:47.164Z,100604.72
2023-06-06T12:04:16.796Z,100604.22
2023-06-06T12:07:46.328Z,100602.72
2023-06-06T12:10:58.292Z,100599.03
2023-06-06T12:21:49.340Z,100605.69
2023-06-06T12:24:59.888Z,100609.63
2023-06-06T12:28:18.299Z,100598.78
2023-06-06T12:31:31.945Z,100598.25
2023-06-06T12:35:03.476Z,100589.25
2023-06-06T12:38:19.851Z,100589.25
2023-06-06T12:41:57.692Z,100592.84
2023-06-06T12:45:26.359Z,100587.25
2023-06-06T12:48:51.259Z,100586.19
2023-06-06T12:52:16.018Z,100588.94
2023-06-06T12:55:21.375Z,100583.34
2023-06-06T12:58:25.037Z,100581.19
2023-06-06T13:01:44.818Z,100565.84
2023-06-06T13:05:16.679Z,100581.00
2023-06-06T13:13:33.431Z,100567.41
2023-06-06T13:17:13.197Z,100572.38
2023-06-06T13:20:35.778Z,100578.19
2023-06-06T13:23:55.806Z,100568.44
2023-06-06T13:31:10.610Z,100558.50
2023-06-06T13:34:17.930Z,100547.78
2023-06-06T13:37:39.861Z,100548.81
2023-06-06T13:42:07.238Z,100566.16
2023-06-06T13:49:31.068Z,100546.84
2023-06-06T13:58:31.790Z,100544.34
2023-06-06T14:01:48.979Z,100550.84
2023-06-06T14:05:37.707Z,100545.25
2023-06-06T14:08:58.246Z,100541.06
2023-06-06T14:12:06.877Z,100538.56
2023-06-06T14:15:46.592Z,100543.41
2023-06-06T14:19:00.354Z,100539.06
2023-06-06T14:22:33.689Z,100534.09
2023-06-06T14:25:39.190Z,100528.63
2023-06-06T14:28:55.262Z,100531.56
2023-06-06T14:32:02.265Z,100541.00
2023-06-06T14:35:09.546Z,100530.50
2023-06-06T14:38:12.957Z,100542.50
2023-06-06T14:41:16.343Z,100535.00
2023-06-06T14:44:21.381Z,100526.53
2023-06-06T14:47:24.918Z,100525.78
2023-06-06T14:50:28.437Z,100525.91
2023-06-06T14:53:31.558Z,100518.69
2023-06-06T14:56:34.790Z,100529.28
2023-06-06T14:59:40.999Z,100514.25
2023-06-06T15:02:44.075Z,100508.69
2023-06-06T15:05:46.876Z,100496.59
2023-06-06T15:08:49.801Z,100505.56
2023-06-06T15:11:55.472Z,100505.81
2023-06-06T15:15:00.190Z,100507.25
2023-06-06T15:18:03.800Z,100505.41
2023-06-06T15:21:07.058Z,100503.66
2023-06-06T15:24:10.337Z,100495.88
2023-06-06T15:27:13.886Z,100499.88
2023-06-06T15:30:17.025Z,100489.69
2023-06-06T15:33:20.422Z,100484.09
2023-06-06T15:36:23.724Z,100492.38
2023-06-06T15:39:27.869Z,100478.78
2023-06-06T15:42:30.936Z,100479.91
2023-06-06T15:45:34.343Z,100477.34
2023-06-06T15:48:37.372Z,100477.75
2023-06-06T15:51:41.800Z,100485.06
2023-06-06T15:54:44.675Z,100484.78
2023-06-06T15:57:48.066Z,100485.19
2023-06-06T16:00:51.334Z,100487.59
2023-06-06T16:03:55.862Z,100491.13
2023-06-06T16:06:58.912Z,100486.69
2023-06-06T16:10:02.195Z,100487.22
2023-06-06T16:13:06.506Z,100494.94
2023-06-06T16:16:11.121Z,100490.31
2023-06-06T16:19:15.389Z,100492.47
2023-06-06T16:22:19.523Z,100488.75
2023-06-06T16:25:22.584Z,100480.91
2023-06-06T16:28:25.974Z,100491.16
2023-06-06T16:31:32.427Z,100496.06
2023-06-06T16:34:37.222Z,100488.34
2023-06-06T16:37:41.330Z,100496.78
2023-06-06T16:40:44.535Z,100495.63
2023-06-06T16:43:47.797Z,100498.09
2023-06-06T16:46:58.774Z,100500.41
2023-06-06T16:50:03.368Z,100500.66
2023-06-06T16:53:06.847Z,100502.06
2023-06-06T16:56:11.251Z,100497.34
2023-06-06T16:59:17.701Z,100500.38
2023-06-06T17:02:30.422Z,100499.28
2023-06-06T17:05:34.185Z,100503.00
2023-06-06T17:08:37.716Z,100499.97
2023-06-06T17:11:44.758Z,100491.16
2023-06-06T17:14:49.049Z,100489.63
2023-06-06T17:17:53.038Z,100479.78
2023-06-06T17:20:56.649Z,100498.69
2023-06-06T17:24:00.214Z,100489.00
2023-06-06T17:27:04.923Z,100487.31
2023-06-06T17:30:09.129Z,100497.44
2023-06-06T17:33:13.259Z,100502.28
2023-06-06T17:36:17.137Z,100504.44
2023-06-06T17:39:21.529Z,100504.44
2023-06-06T17:42:25.107Z,100501.44
2023-06-06T17:45:29.710Z,100508.59
2023-06-06T17:48:38.108Z,100519.00
2023-06-06T17:51:41.194Z,100518.56
2023-06-06T17:54:44.038Z,100516.19
2023-06-06T17:57:46.898Z,100521.03
2023-06-06T18:00:50.044Z,100520.34
2023-06-06T18:07:00.841Z,100523.13
2023-06-06T18:10:05.160Z,100521.22
2023-06-06T18:13:08.217Z,100525.28
2023-06-06T18:16:12.080Z,100530.25
2023-06-06T18:19:15.282Z,100534.81
2023-06-06T18:22:19.122Z,100535.75
2023-06-06T18:25:22.388Z,100532.31
2023-06-06T18:28:25.551Z,100534.34
2023-06-06T18:31:37.659Z,100539.69
2023-06-06T18:34:41.857Z,100540.53
2023-06-06T18:37:47.138Z,100538.03
2023-06-06T18:40:50.109Z,100536.63
2023-06-06T18:43:52.788Z,100543.41
2023-06-06T18:46:55.861Z,100540.94
2023-06-06T18:49:59.576Z,100548.31
2023-06-06T18:53:03.150Z,100552.50
2023-06-06T18:56:06.889Z,100551.78
2023-06-06T18:59:09.687Z,100555.84
2023-06-06T19:02:12.697Z,100560.00
2023-06-06T19:05:15.755Z,100560.38
2023-06-06T19:08:18.636Z,100556.91
2023-06-06T19:11:22.393Z,100561.78
2023-06-06T19:14:25.193Z,100565.59
2023-06-06T19:17:28.205Z,100565.22
2023-06-06T19:20:31.062Z,100567.13
2023-06-06T19:23:34.255Z,100558.69
2023-06-06T19:26:37.201Z,100574.13
2023-06-06T19:29:40.063Z,100566.19
2023-06-06T19:32:43.686Z,100573.91
2023-06-06T19:35:47.565Z,100570.34
2023-06-06T19:38:50.374Z,100577.22
2023-06-06T19:41:53.351Z,100570.31
2023-06-06T19:44:56.826Z,100569.75
2023-06-06T19:47:59.747Z,100569.25
2023-06-06T19:51:03.940Z,100569.00
2023-06-06T19:54:07.237Z,100567.09
2023-06-06T19:57:10.357Z,100577.47
2023-06-06T20:00:14.694Z,100580.53
2023-06-06T20:03:17.626Z,100585.78
2023-06-06T20:06:20.604Z,100582.91
2023-06-06T20:09:23.741Z,100589.69
2023-06-06T20:12:27.125Z,100594.78
2023-06-06T20:15:30.317Z,100585.78
2023-06-06T20:18:33.216Z,100586.84
2023-06-06T20:21:36.648Z,100588.16
2023-06-06T20:24:39.424Z,100597.16
2023-06-06T20:27:42.129Z,100591.00
2023-06-06T20:30:47.763Z,100593.00
2023-06-06T20:33:50.641Z,100586.72
2023-06-06T20:36:53.425Z,100591.22
2023-06-06T20:40:16.187Z,100601.59
2023-06-06T20:43:22.241Z,100594.06
2023-06-06T20:46:25.280Z,100593.09
2023-06-06T20:49:29.864Z,100586.00
2023-06-06T20:52:36.105Z,100590.50
2023-06-06T20:55:39.336Z,100594.88
2023-06-06T20:58:45.415Z,100596.78
2023-06-06T21:01:48.953Z,100591.56
2023-06-06T21:04:51.982Z,100588.00
2023-06-06T21:07:54.852Z,100588.84
2023-06-06T21:10:58.246Z,100586.09
2023-06-06T21:14:02.041Z,100574.06
2023-06-06T21:17:05.314Z,100587.16
2023-06-06T21:20:09.599Z,100591.09
2023-06-06T21:23:13.124Z,100582.50
2023-06-06T21:26:17.297Z,100584.59
2023-06-06T21:29:21.211Z,100583.06
2023-06-06T21:32:25.459Z,100580.69
2023-06-06T21:35:31.960Z,100576.25
2023-06-06T21:38:35.235Z,100580.91
2023-06-06T21:41:38.824Z,100586.31
2023-06-06T21:44:41.952Z,100584.59
2023-06-06T21:47:45.113Z,100582.63
2023-06-06T21:50:48.498Z,100577.19
2023-06-06T21:53:52.047Z,100573.16
2023-06-06T21:56:55.132Z,100577.78
2023-06-06T21:59:58.747Z,100575.31
2023-06-06T22:03:02.309Z,100571.63
2023-06-06T22:06:05.623Z,100573.28
2023-06-06T22:09:09.000Z,100561.88
2023-06-06T22:12:12.248Z,100565.44
2023-06-06T22:15:15.210Z,100560.56
2023-06-06T22:18:18.392Z,100559.59
2023-06-06T22:21:21.401Z,100555.22
2023-06-06T22:24:24.697Z,100564.81
2023-06-06T22:27:27.930Z,100559.13
2023-06-06T22:30:31.835Z,100555.31
2023-06-06T22:33:36.890Z,100556.16
2023-06-06T22:36:39.988Z,100554.19
2023-06-06T22:39:49.108Z,100555.13
2023-06-06T22:42:52.165Z,100560.19
2023-06-06T22:45:57.641Z,100550.75
2023-06-06T22:49:01.253Z,100547.28
2023-06-06T22:52:04.680Z,100547.84
2023-06-06T22:55:08.361Z,100531.75
2023-06-06T22:58:13.685Z,100547.59
2023-06-06T23:01:17.063Z,100543.81
2023-06-06T23:04:19.995Z,100546.66
2023-06-06T23:07:23.102Z,100544.06
2023-06-06T23:10:26.323Z,100543.22
2023-06-06T23:13:29.328Z,100511.44
2023-06-06T23:16:35.205Z,100534.88
2023-06-06T23:19:38.999Z,100525.69
2023-06-06T23:22:44.009Z,100537.47
2023-06-06T23:25:48.450Z,100536.44
2023-06-06T23:28:51.687Z,100525.03
2023-06-06T23:31:54.856Z,100523.25
2023-06-06T23:34:58.143Z,100524.19
2023-06-06T23:38:01.190Z,100525.75
2023-06-06T23:41:04.166Z,100518.72
2023-06-06T23:44:07.144Z,100519.94
2023-06-06T23:47:10.475Z,100512.53
2023-06-06T23:50:13.487Z,100511.34
2023-06-06T23:53:16.336Z,100520.13
2023-06-06T23:56:19.226Z,100514.81
2023-06-06T23:59:25.833Z,100519.53
